Terminal Aerodrome Forecast
Issued by NWS

Home | Current Version | Previous Version | Text Only | Print | Product List | Glossary On
Versions: 1 2 3 4 5 6 7 8 9 10 11 12 13 14 15 16 17 18 19 20 21 22
000
FTUS42 KKEY 260315 AAB
TAFMTH
TAF AMD
KMTH 260315Z 2603/2624 30006KT P6SM BKN050
     FM260800 28008KT P6SM SCT035 BKN045
     FM261300 27014G17KT P6SM BKN035
     FM261700 28016G24KT P6SM BKN040=

USA.gov is the U.S. government's official web portal to all federal, state and local government web resources and services.